createdAt,value
2019-01-29T00:02:04.491Z,99979.38
2019-01-29T00:04:33.877Z,99983.45
2019-01-29T00:07:03.532Z,99987.97
2019-01-29T00:09:33.945Z,99987.97
2019-01-29T00:12:05.103Z,99982.06
2019-01-29T00:14:35.704Z,99982.72
2019-01-29T00:17:06.275Z,99987.63
2019-01-29T00:19:36.784Z,99991.70
2019-01-29T00:22:07.868Z,99994.11
2019-01-29T00:24:37.288Z,99991.13
2019-01-29T00:27:06.669Z,99996.77
2019-01-29T00:29:36.316Z,100000.05
2019-01-29T00:32:06.072Z,100000.33
2019-01-29T00:34:38.624Z,100002.25
2019-01-29T00:37:08.294Z,100001.95
2019-01-29T00:39:38.769Z,100001.22
2019-01-29T00:42:09.651Z,100001.50
2019-01-29T00:44:41.009Z,100001.78
2019-01-29T00:47:11.128Z,100003.37
2019-01-29T00:49:41.962Z,100006.08
2019-01-29T00:52:11.568Z,100013.48
2019-01-29T00:54:42.163Z,100012.17
2019-01-29T00:57:13.470Z,100009.84
2019-01-29T00:59:42.955Z,100016.77
2019-01-29T01:02:12.435Z,100022.40
2019-01-29T01:04:42.207Z,100018.73
2019-01-29T01:07:12.936Z,100021.27
2019-01-29T01:09:43.363Z,100026.53
2019-01-29T01:12:14.573Z,100026.78
2019-01-29T01:14:45.449Z,100032.74
2019-01-29T01:17:14.950Z,100025.86
2019-01-29T01:19:44.392Z,100036.11
2019-01-29T01:22:14.125Z,100026.70
2019-01-29T01:24:44.702Z,100029.98
2019-01-29T01:27:14.137Z,100035.52
2019-01-29T01:29:43.745Z,100040.36
2019-01-29T01:32:13.131Z,100040.58
2019-01-29T01:34:42.551Z,100048.09
2019-01-29T01:37:13.821Z,100046.12
2019-01-29T01:39:45.023Z,100051.16
2019-01-29T01:42:14.425Z,100053.95
2019-01-29T01:44:43.909Z,100059.79
2019-01-29T01:47:13.411Z,100057.96
2019-01-29T01:49:44.016Z,100056.94
2019-01-29T01:52:13.700Z,100055.84
2019-01-29T01:54:43.100Z,100062.12
2019-01-29T01:57:14.313Z,100060.01
2019-01-29T01:59:46.554Z,100064.14
2019-01-29T02:02:16.002Z,100068.92
2019-01-29T02:04:45.429Z,100070.72
2019-01-29T02:07:14.872Z,100066.14
2019-01-29T02:09:45.713Z,100069.44
2019-01-29T02:12:16.315Z,100069.34
2019-01-29T02:14:48.479Z,100061.45
2019-01-29T02:17:18.105Z,100063.22
2019-01-29T02:19:48.683Z,100064.47
2019-01-29T02:22:18.369Z,100070.52
2019-01-29T02:24:47.912Z,100081.17
2019-01-29T02:27:19.009Z,100080.88
2019-01-29T02:29:48.432Z,100075.84
2019-01-29T02:32:18.827Z,100080.17
2019-01-29T02:34:50.013Z,100082.20
2019-01-29T02:37:20.885Z,100084.25
2019-01-29T02:39:50.392Z,100084.09
2019-01-29T02:42:19.932Z,100074.92
2019-01-29T02:44:52.539Z,100074.92
2019-01-29T02:47:21.925Z,100085.50
2019-01-29T02:49:51.330Z,100088.35
2019-01-29T02:52:21.164Z,100090.09
2019-01-29T02:54:51.627Z,100084.02
2019-01-29T02:57:21.048Z,100085.34
2019-01-29T02:59:50.503Z,100094.48
2019-01-29T03:02:19.952Z,100096.59
2019-01-29T03:04:49.367Z,100093.16
2019-01-29T03:07:18.929Z,100090.02
2019-01-29T03:09:48.438Z,100095.73
2019-01-29T03:12:18.341Z,100096.30
2019-01-29T03:14:48.000Z,100103.77
2019-01-29T03:17:17.409Z,100111.30
2019-01-29T03:19:46.794Z,100119.27
2019-01-29T03:22:17.478Z,100118.80
2019-01-29T03:24:46.958Z,100128.67
2019-01-29T03:27:17.727Z,100120.05
2019-01-29T03:29:47.315Z,100130.64
2019-01-29T03:32:16.794Z,100125.91
2019-01-29T03:34:46.273Z,100123.98
2019-01-29T03:37:15.829Z,100115.07
2019-01-29T03:39:47.129Z,100115.01
2019-01-29T03:42:16.546Z,100120.46
2019-01-29T03:44:47.715Z,100120.19
2019-01-29T03:47:18.603Z,100125.95
2019-01-29T03:49:48.047Z,100132.50
2019-01-29T03:52:19.595Z,100131.52
2019-01-29T03:54:48.996Z,100134.81
2019-01-29T03:57:18.400Z,100136.09
2019-01-29T03:59:47.851Z,100140.98
2019-01-29T04:02:17.276Z,100147.05
2019-01-29T04:04:46.967Z,100150.79
2019-01-29T04:07:16.571Z,100147.05
2019-01-29T04:09:47.398Z,100149.09
2019-01-29T04:12:18.642Z,100156.47
2019-01-29T04:14:50.816Z,100155.84
2019-01-29T04:17:22.278Z,100157.69
2019-01-29T04:19:51.676Z,100156.05
2019-01-29T04:22:23.167Z,100158.79
2019-01-29T04:24:52.661Z,100160.76
2019-01-29T04:27:23.519Z,100159.44
2019-01-29T04:29:53.066Z,100171.24
2019-01-29T04:32:22.750Z,100164.42
2019-01-29T04:34:52.184Z,100163.18
2019-01-29T04:37:21.735Z,100164.77
2019-01-29T04:39:52.661Z,100166.17
2019-01-29T04:42:23.290Z,100163.30
2019-01-29T04:44:57.542Z,100163.30
2019-01-29T04:47:28.749Z,100165.55
2019-01-29T04:49:59.257Z,100163.64
2019-01-29T04:52:28.992Z,100168.47
2019-01-29T04:55:00.992Z,100172.97
2019-01-29T04:57:31.420Z,100177.65
2019-01-29T05:00:01.101Z,100178.77
2019-01-29T05:02:30.798Z,100186.91
2019-01-29T05:05:00.200Z,100190.86
2019-01-29T05:07:29.814Z,100191.13
2019-01-29T05:10:01.470Z,100187.94
2019-01-29T05:12:30.868Z,100187.49
2019-01-29T05:15:03.071Z,100199.63
2019-01-29T05:17:32.480Z,100194.77
2019-01-29T05:20:02.194Z,100198.77
2019-01-29T05:22:34.450Z,100195.16
2019-01-29T05:25:06.980Z,100196.99
2019-01-29T05:27:36.514Z,100196.64
2019-01-29T05:30:08.618Z,100197.52
2019-01-29T05:32:38.001Z,100202.19
2019-01-29T05:35:07.975Z,100201.02
2019-01-29T05:37:37.554Z,100201.19
2019-01-29T05:40:09.380Z,100199.95
2019-01-29T05:42:38.754Z,100203.72
2019-01-29T05:45:10.947Z,100193.80
2019-01-29T05:47:41.562Z,100185.69
2019-01-29T05:50:13.309Z,100195.20
2019-01-29T05:52:42.863Z,100193.58
2019-01-29T05:55:12.708Z,100200.45
2019-01-29T05:57:42.461Z,100198.84
2019-01-29T06:00:16.024Z,100201.48
2019-01-29T06:02:45.571Z,100204.98
2019-01-29T06:05:15.439Z,100206.53
2019-01-29T06:07:45.060Z,100211.13
2019-01-29T06:10:15.113Z,100215.31
2019-01-29T06:12:44.472Z,100206.84
2019-01-29T06:15:16.134Z,100212.38
2019-01-29T06:17:45.728Z,100227.23
2019-01-29T06:20:18.911Z,100225.41
2019-01-29T06:22:49.716Z,100225.18
2019-01-29T06:25:19.137Z,100224.38
2019-01-29T06:27:48.777Z,100234.91
2019-01-29T06:30:20.103Z,100228.67
2019-01-29T06:32:49.694Z,100232.84
2019-01-29T06:35:19.932Z,100237.14
2019-01-29T06:37:49.339Z,100236.33
2019-01-29T06:40:21.177Z,100244.64
2019-01-29T06:42:51.269Z,100250.06
2019-01-29T06:45:21.631Z,100254.24
2019-01-29T06:47:51.150Z,100250.14
2019-01-29T06:50:22.804Z,100254.83
2019-01-29T06:52:52.255Z,100254.80
2019-01-29T06:55:22.355Z,100252.23
2019-01-29T06:57:55.679Z,100260.06
2019-01-29T07:00:25.559Z,100262.21
2019-01-29T07:02:55.188Z,100263.34
2019-01-29T07:05:25.341Z,100274.03
2019-01-29T07:07:55.003Z,100261.35
2019-01-29T07:10:25.377Z,100274.23
2019-01-29T07:12:55.304Z,100275.88
2019-01-29T07:15:43.461Z,100274.13
2019-01-29T07:18:22.594Z,100271.27
2019-01-29T07:20:53.029Z,100266.30
2019-01-29T07:23:22.940Z,100271.27
2019-01-29T07:25:52.741Z,100265.72
2019-01-29T07:28:22.186Z,100277.54
2019-01-29T07:30:51.631Z,100276.03
2019-01-29T07:33:21.254Z,100275.45
2019-01-29T07:35:50.860Z,100275.13
2019-01-29T07:38:20.366Z,100278.50
2019-01-29T07:40:49.938Z,100280.39
2019-01-29T07:43:19.336Z,100278.53
2019-01-29T07:45:48.723Z,100279.55
2019-01-29T07:48:18.410Z,100279.45
2019-01-29T07:50:47.849Z,100281.06
2019-01-29T07:53:17.285Z,100273.81
2019-01-29T07:55:47.921Z,100270.67
2019-01-29T07:58:17.381Z,100284.37
2019-01-29T08:00:46.835Z,100286.05
2019-01-29T08:03:16.284Z,100283.11
2019-01-29T08:05:45.846Z,100291.95
2019-01-29T08:08:15.347Z,100287.21
2019-01-29T08:10:44.926Z,100289.05
2019-01-29T08:13:14.550Z,100289.31
2019-01-29T08:15:44.054Z,100295.12
2019-01-29T08:18:15.002Z,100300.95
2019-01-29T08:20:45.628Z,100298.59
2019-01-29T08:23:15.256Z,100298.45
2019-01-29T08:25:47.986Z,100303.90
2019-01-29T08:28:16.180Z,100302.13
2019-01-29T08:30:45.596Z,100306.60
2019-01-29T08:33:15.225Z,100311.84
2019-01-29T08:35:44.599Z,100320.73
2019-01-29T08:38:14.024Z,100318.61
2019-01-29T08:40:43.588Z,100321.63
2019-01-29T08:43:12.985Z,100323.75
2019-01-29T08:45:42.397Z,100324.51
2019-01-29T08:48:11.963Z,100330.54
2019-01-29T08:50:41.477Z,100330.26
2019-01-29T08:53:10.871Z,100347.14
2019-01-29T08:55:40.380Z,100340.77
2019-01-29T08:58:11.487Z,100340.61
2019-01-29T09:00:41.114Z,100337.73
2019-01-29T09:03:10.548Z,100339.92
2019-01-29T09:05:40.962Z,100344.36
2019-01-29T09:08:10.645Z,100357.48
2019-01-29T09:10:40.251Z,100351.30
2019-01-29T09:13:09.648Z,100352.52
2019-01-29T09:15:40.162Z,100350.81
2019-01-29T09:18:09.659Z,100352.69
2019-01-29T09:20:40.317Z,100352.30
2019-01-29T09:23:09.779Z,100352.30
2019-01-29T09:25:41.171Z,100352.86
2019-01-29T09:28:10.760Z,100345.27
2019-01-29T09:30:43.936Z,100343.31
2019-01-29T09:33:13.759Z,100346.41
2019-01-29T09:35:43.133Z,100347.61
2019-01-29T09:38:14.506Z,100349.25
2019-01-29T09:40:43.954Z,100346.55
2019-01-29T09:43:14.824Z,100349.36
2019-01-29T09:45:44.328Z,100342.31
2019-01-29T09:48:13.781Z,100352.55
2019-01-29T09:50:43.211Z,100342.77
2019-01-29T09:53:14.498Z,100348.86
2019-01-29T09:55:45.268Z,100351.63
2019-01-29T09:58:14.709Z,100352.63
2019-01-29T10:00:45.907Z,100350.13
2019-01-29T10:03:15.541Z,100347.23
2019-01-29T10:05:46.004Z,100346.37
2019-01-29T10:08:16.721Z,100341.20
2019-01-29T10:10:47.432Z,100341.13
2019-01-29T10:13:18.660Z,100345.36
2019-01-29T10:15:48.082Z,100338.82
2019-01-29T10:18:17.556Z,100330.07
2019-01-29T10:20:48.442Z,100336.53
2019-01-29T10:23:17.856Z,100334.82
2019-01-29T10:25:47.559Z,100336.18
2019-01-29T10:28:18.166Z,100329.34
2019-01-29T10:30:49.456Z,100332.23
2019-01-29T10:33:19.478Z,100332.77
2019-01-29T10:35:49.171Z,100328.75
2019-01-29T10:38:18.567Z,100327.48
2019-01-29T10:40:48.507Z,100318.69
2019-01-29T10:43:17.915Z,100320.09
2019-01-29T10:45:48.944Z,100325.48
2019-01-29T10:48:18.610Z,100319.60
2019-01-29T10:50:48.117Z,100321.00
2019-01-29T10:53:17.624Z,100312.81
2019-01-29T10:55:49.735Z,100310.17
2019-01-29T10:58:20.216Z,100312.50
2019-01-29T11:00:51.066Z,100306.97
2019-01-29T11:03:23.671Z,100309.66
2019-01-29T11:05:53.094Z,100306.62
2019-01-29T11:08:22.473Z,100302.02
2019-01-29T11:10:52.024Z,100292.58
2019-01-29T11:13:21.491Z,100305.97
2019-01-29T11:15:52.732Z,100310.95
2019-01-29T11:18:22.499Z,100306.63
2019-01-29T11:20:51.887Z,100299.12
2019-01-29T11:23:21.393Z,100304.94
2019-01-29T11:25:55.985Z,100293.15
2019-01-29T11:28:22.088Z,100293.61
2019-01-29T11:30:51.576Z,100290.30
2019-01-29T11:33:22.531Z,100288.36
2019-01-29T11:35:51.956Z,100288.94
2019-01-29T11:38:23.162Z,100290.92
2019-01-29T11:40:52.847Z,100284.81
2019-01-29T11:43:22.306Z,100276.11
2019-01-29T11:45:53.816Z,100269.70
2019-01-29T11:48:23.877Z,100272.62
2019-01-29T11:50:53.372Z,100281.95
2019-01-29T11:53:22.783Z,100279.05
2019-01-29T11:55:52.323Z,100273.85
2019-01-29T11:58:21.731Z,100271.81
2019-01-29T12:01:05.935Z,100280.38
2019-01-29T12:03:37.897Z,100275.23
2019-01-29T12:06:07.648Z,100269.86
2019-01-29T12:08:38.441Z,100279.66
2019-01-29T12:11:08.114Z,100278.49
2019-01-29T12:13:37.494Z,100288.13
2019-01-29T12:16:07.084Z,100292.38
2019-01-29T12:18:36.513Z,100292.38
2019-01-29T12:21:07.379Z,100292.34
2019-01-29T12:23:36.783Z,100295.17
2019-01-29T12:26:12.892Z,100286.88
2019-01-29T12:28:37.576Z,100296.50
2019-01-29T12:31:07.055Z,100291.99
2019-01-29T12:33:36.470Z,100283.44
2019-01-29T12:36:05.887Z,100293.44
2019-01-29T12:38:37.538Z,100288.89
2019-01-29T12:41:08.615Z,100300.28
2019-01-29T12:43:39.238Z,100288.14
2019-01-29T12:46:09.005Z,100287.59
2019-01-29T12:48:38.401Z,100283.88
2019-01-29T12:51:14.237Z,100291.44
2019-01-29T12:53:47.857Z,100291.44
2019-01-29T12:56:21.588Z,100284.41
2019-01-29T12:58:49.905Z,100286.78
2019-01-29T13:01:19.831Z,100280.91
2019-01-29T13:03:49.460Z,100275.46
2019-01-29T13:06:18.959Z,100276.33
2019-01-29T13:08:48.524Z,100275.89
2019-01-29T13:11:17.974Z,100270.42
2019-01-29T13:13:47.395Z,100270.86
2019-01-29T13:16:18.955Z,100266.88
2019-01-29T13:18:48.374Z,100272.80
2019-01-29T13:21:18.779Z,100269.27
2019-01-29T13:23:48.472Z,100265.22
2019-01-29T13:26:17.897Z,100267.84
2019-01-29T13:28:50.918Z,100270.79
2019-01-29T13:31:20.442Z,100270.87
2019-01-29T13:33:49.859Z,100264.95
2019-01-29T13:36:19.270Z,100268.91
2019-01-29T13:38:50.676Z,100258.07
2019-01-29T13:41:20.533Z,100259.84
2019-01-29T13:43:51.473Z,100260.89
2019-01-29T13:46:21.291Z,100259.74
2019-01-29T13:48:50.847Z,100263.55
2019-01-29T13:51:20.251Z,100262.69
2019-01-29T13:53:49.856Z,100259.25
2019-01-29T13:56:19.348Z,100255.25
2019-01-29T13:58:49.789Z,100261.44
2019-01-29T14:01:19.405Z,100262.66
2019-01-29T14:03:48.898Z,100258.72
2019-01-29T14:06:20.794Z,100265.59
2019-01-29T14:08:53.609Z,100267.06
2019-01-29T14:11:22.870Z,100265.46
2019-01-29T14:13:53.407Z,100258.34
2019-01-29T14:16:23.215Z,100260.70
2019-01-29T14:18:52.764Z,100261.33
2019-01-29T14:21:23.382Z,100252.83
2019-01-29T14:23:55.681Z,100257.36
2019-01-29T14:26:25.742Z,100258.47
2019-01-29T14:28:56.886Z,100252.20
2019-01-29T14:31:26.606Z,100254.66
2019-01-29T14:33:57.849Z,100257.46
2019-01-29T14:36:28.448Z,100254.28
2019-01-29T14:39:31.489Z,100256.92
2019-01-29T14:42:00.882Z,100250.95
2019-01-29T14:44:40.363Z,100256.87
2019-01-29T14:47:10.012Z,100253.87
2019-01-29T14:49:39.431Z,100250.19
2019-01-29T14:52:08.966Z,100252.02
2019-01-29T14:54:38.527Z,100247.45
2019-01-29T14:57:07.948Z,100255.70
2019-01-29T14:59:37.354Z,100254.65
2019-01-29T15:02:06.956Z,100254.45
2019-01-29T15:04:36.345Z,100248.82
2019-01-29T15:07:06.967Z,100245.64
2019-01-29T15:09:36.648Z,100246.63
2019-01-29T15:12:06.054Z,100249.84
2019-01-29T15:14:35.540Z,100257.28
2019-01-29T15:17:24.203Z,100247.76
2019-01-29T15:19:53.672Z,100254.35
2019-01-29T15:22:24.167Z,100240.66
2019-01-29T15:24:53.649Z,100256.67
2019-01-29T15:27:23.680Z,100252.09
2019-01-29T15:29:53.223Z,100251.16
2019-01-29T15:32:22.904Z,100248.41
2019-01-29T15:34:52.481Z,100253.80
2019-01-29T15:37:23.116Z,100247.80
2019-01-29T15:39:52.669Z,100251.28
2019-01-29T15:42:22.073Z,100244.34
2019-01-29T15:44:52.689Z,100246.12
2019-01-29T15:47:23.624Z,100240.72
2019-01-29T15:49:53.025Z,100245.84
2019-01-29T15:52:30.049Z,100239.56
2019-01-29T15:55:02.158Z,100243.08
2019-01-29T15:57:32.855Z,100250.47
2019-01-29T16:00:02.300Z,100241.64
2019-01-29T16:02:37.340Z,100243.75
2019-01-29T16:05:10.233Z,100240.10
2019-01-29T16:07:39.718Z,100240.63
2019-01-29T16:10:12.760Z,100238.59
2019-01-29T16:12:42.275Z,100238.17
2019-01-29T16:15:13.867Z,100237.61
2019-01-29T16:17:43.841Z,100230.78
2019-01-29T16:20:16.076Z,100234.75
2019-01-29T16:22:45.488Z,100233.31
2019-01-29T16:25:16.125Z,100227.88
2019-01-29T16:27:49.122Z,100233.87
2019-01-29T16:30:21.248Z,100231.39
2019-01-29T16:32:51.007Z,100232.94
2019-01-29T16:35:26.004Z,100223.77
2019-01-29T16:37:56.178Z,100226.41
2019-01-29T16:40:28.065Z,100216.50
2019-01-29T16:42:57.631Z,100225.28
2019-01-29T16:45:29.890Z,100223.81
2019-01-29T16:48:00.328Z,100225.02
2019-01-29T16:50:30.045Z,100221.29
2019-01-29T16:53:00.146Z,100219.17
2019-01-29T16:55:31.770Z,100220.95
2019-01-29T16:58:01.380Z,100219.97
2019-01-29T17:00:32.075Z,100218.98
2019-01-29T17:03:01.818Z,100214.00
2019-01-29T17:05:34.927Z,100207.94
2019-01-29T17:08:04.709Z,100207.94
2019-01-29T17:10:34.207Z,100213.52
2019-01-29T17:13:03.593Z,100209.44
2019-01-29T17:15:33.348Z,100213.20
2019-01-29T17:18:03.342Z,100213.86
2019-01-29T17:20:36.053Z,100214.66
2019-01-29T17:23:06.823Z,100212.85
2019-01-29T17:25:36.699Z,100214.38
2019-01-29T17:28:06.308Z,100210.95
2019-01-29T17:30:40.767Z,100212.86
2019-01-29T17:33:11.497Z,100215.28
2019-01-29T17:35:41.729Z,100208.31
2019-01-29T17:38:11.613Z,100209.77
2019-01-29T17:40:43.675Z,100205.41
2019-01-29T17:43:13.243Z,100205.13
2019-01-29T17:45:44.692Z,100202.77
2019-01-29T17:48:16.079Z,100200.31
2019-01-29T17:50:46.580Z,100205.97
2019-01-29T17:53:17.107Z,100203.13
2019-01-29T17:55:47.727Z,100200.77
2019-01-29T17:58:17.137Z,100200.14
2019-01-29T18:00:53.666Z,100192.45
2019-01-29T18:03:23.368Z,100192.45
2019-01-29T18:05:52.983Z,100201.77
2019-01-29T18:08:22.496Z,100198.75
2019-01-29T18:10:52.141Z,100198.52
2019-01-29T18:13:21.691Z,100203.78
2019-01-29T18:15:51.227Z,100206.73
2019-01-29T18:18:20.773Z,100206.80
2019-01-29T18:20:50.236Z,100207.11
2019-01-29T18:23:24.652Z,100208.73
2019-01-29T18:25:54.484Z,100207.63
2019-01-29T18:28:24.955Z,100214.28
2019-01-29T18:30:54.395Z,100211.71
2019-01-29T18:33:23.861Z,100215.59
2019-01-29T18:35:53.303Z,100216.53
2019-01-29T18:38:22.748Z,100209.42
2019-01-29T18:40:54.774Z,100207.25
2019-01-29T18:43:24.380Z,100206.80
2019-01-29T18:45:53.943Z,100200.00
2019-01-29T18:48:23.649Z,100210.12
2019-01-29T18:50:53.049Z,100203.30
2019-01-29T18:53:24.707Z,100209.20
2019-01-29T18:55:54.242Z,100209.30
2019-01-29T18:58:24.645Z,100204.83
2019-01-29T19:00:55.930Z,100201.70
2019-01-29T19:03:28.382Z,100204.12
2019-01-29T19:05:57.912Z,100200.30
2019-01-29T19:08:27.317Z,100205.87
2019-01-29T19:10:58.036Z,100203.92
2019-01-29T19:13:28.474Z,100202.31
2019-01-29T19:15:58.975Z,100208.09
2019-01-29T19:18:28.725Z,100206.75
2019-01-29T19:20:58.284Z,100206.63
2019-01-29T19:23:27.776Z,100207.20
2019-01-29T19:25:58.554Z,100199.16
2019-01-29T19:28:28.191Z,100195.78
2019-01-29T19:31:00.170Z,100195.05
2019-01-29T19:33:29.959Z,100200.24
2019-01-29T19:35:59.611Z,100201.72
2019-01-29T19:38:30.419Z,100200.18
2019-01-29T19:41:00.318Z,100196.87
2019-01-29T19:43:29.762Z,100193.80
2019-01-29T19:45:59.327Z,100198.19
2019-01-29T19:48:29.844Z,100199.50
2019-01-29T19:51:02.576Z,100202.87
2019-01-29T19:53:37.874Z,100205.34
2019-01-29T19:56:07.384Z,100207.13
2019-01-29T19:58:36.814Z,100203.12
2019-01-29T20:01:07.732Z,100210.88
2019-01-29T20:03:38.248Z,100206.77
2019-01-29T20:06:07.713Z,100193.74
2019-01-29T20:08:37.431Z,100202.14
2019-01-29T20:11:08.449Z,100199.09
2019-01-29T20:13:39.638Z,100194.34
2019-01-29T20:16:09.422Z,100195.78
2019-01-29T20:18:41.124Z,100189.14
2019-01-29T20:21:11.150Z,100188.42
2019-01-29T20:23:41.411Z,100190.98
2019-01-29T20:26:11.974Z,100197.33
2019-01-29T20:28:42.592Z,100193.66
2019-01-29T20:31:15.015Z,100194.59
2019-01-29T20:33:44.585Z,100198.62
2019-01-29T20:36:15.474Z,100198.56
2019-01-29T20:38:44.949Z,100192.77
2019-01-29T20:41:15.381Z,100190.23
2019-01-29T20:43:44.902Z,100188.91
2019-01-29T20:46:14.874Z,100189.91
2019-01-29T20:48:44.360Z,100186.47
2019-01-29T20:51:13.784Z,100198.88
2019-01-29T20:53:43.481Z,100188.68
2019-01-29T20:56:12.961Z,100188.80
2019-01-29T20:58:52.325Z,100180.05
2019-01-29T21:01:14.106Z,100177.03
2019-01-29T21:03:43.662Z,100185.37
2019-01-29T21:06:13.238Z,100183.99
2019-01-29T21:08:45.893Z,100178.97
2019-01-29T21:11:15.390Z,100188.38
2019-01-29T21:13:44.803Z,100183.55
2019-01-29T21:16:14.376Z,100182.23
2019-01-29T21:18:45.594Z,100182.52
2019-01-29T21:21:16.061Z,100180.50
2019-01-29T21:23:49.058Z,100177.55
2019-01-29T21:26:18.722Z,100175.98
2019-01-29T21:28:48.441Z,100177.48
2019-01-29T21:31:19.543Z,100173.24
2019-01-29T21:33:49.064Z,100175.30
2019-01-29T21:36:18.411Z,100185.87
2019-01-29T21:38:48.176Z,100176.52
2019-01-29T21:41:18.795Z,100171.80
2019-01-29T21:43:49.231Z,100172.28
2019-01-29T21:46:19.311Z,100170.61
2019-01-29T21:48:48.961Z,100163.02
2019-01-29T21:51:18.391Z,100163.17
2019-01-29T21:53:49.106Z,100166.22
2019-01-29T21:56:18.527Z,100166.44
2019-01-29T21:58:48.196Z,100170.95
2019-01-29T22:01:17.783Z,100159.97
2019-01-29T22:03:47.618Z,100161.41
2019-01-29T22:06:18.445Z,100156.78
2019-01-29T22:08:48.531Z,100152.27
2019-01-29T22:11:18.332Z,100152.66
2019-01-29T22:13:48.934Z,100147.65
2019-01-29T22:16:20.850Z,100145.41
2019-01-29T22:18:51.894Z,100149.56
2019-01-29T22:21:22.840Z,100147.86
2019-01-29T22:23:53.598Z,100147.35
2019-01-29T22:26:23.168Z,100149.63
2019-01-29T22:28:56.111Z,100146.91
2019-01-29T22:31:25.826Z,100146.19
2019-01-29T22:33:55.252Z,100145.36
2019-01-29T22:36:25.832Z,100141.41
2019-01-29T22:38:55.252Z,100144.76
2019-01-29T22:41:24.704Z,100140.37
2019-01-29T22:43:55.191Z,100141.20
2019-01-29T22:46:24.859Z,100134.42
2019-01-29T22:48:54.262Z,100129.80
2019-01-29T22:51:24.812Z,100132.30
2019-01-29T22:53:55.466Z,100132.30
2019-01-29T22:56:24.927Z,100126.66
2019-01-29T23:01:40.031Z,100116.66
2019-01-29T23:04:21.574Z,100116.87
2019-01-29T23:07:23.029Z,100110.48
2019-01-29T23:09:52.459Z,100107.91
2019-01-29T23:12:21.885Z,100111.47
2019-01-29T23:14:52.978Z,100098.48
2019-01-29T23:17:22.371Z,100099.05
2019-01-29T23:19:52.867Z,100097.80
2019-01-29T23:22:22.563Z,100093.58
2019-01-29T23:24:52.114Z,100089.28
2019-01-29T23:27:21.606Z,100090.66
2019-01-29T23:29:51.385Z,100086.36
2019-01-29T23:32:20.826Z,100082.55
2019-01-29T23:34:52.116Z,100085.61
2019-01-29T23:37:22.062Z,100082.24
2019-01-29T23:39:51.547Z,100077.86
2019-01-29T23:42:22.194Z,100076.09
2019-01-29T23:44:52.658Z,100075.61
2019-01-29T23:47:22.096Z,100081.10
2019-01-29T23:49:51.648Z,100077.67
2019-01-29T23:52:22.682Z,100073.70
2019-01-29T23:54:51.993Z,100069.34
2019-01-29T23:57:21.347Z,100073.22
2019-01-29T23:59:53.705Z,100074.83
